Time;durP1;ratioP1;P1;durP2;ratioP2;P2;SDS_P1;SDS_P2;PMS_P1;PMS_P2;Temp;Humidity;BMP_temperature;BMP_pressure;BME280_temperature;BME280_humidity;BME280_pressure;Samples;Min_cycle;Max_cycle;Signal;HPM_P1;HPM_P2
2022/05/27 00:04:12;;;;;;;1.85;1.15;;;;;;;18.48;64.16;100930.75;18299825;32;20406;-66
2022/05/27 00:14:15;;;;;;;1.85;1.27;;;;;;;18.80;63.83;100915.78;18303630;32;20455;-66
2022/05/27 00:24:21;;;;;;;2.50;1.20;;;;;;;18.34;65.23;100910.84;18307967;32;20112;-66
2022/05/27 00:34:24;;;;;;;2.62;1.42;;;;;;;18.62;64.81;100910.09;18307836;32;20116;-66
2022/05/27 00:44:29;;;;;;;3.50;1.30;;;;;;;18.05;66.25;100899.25;18307681;32;20401;-66
2022/05/27 00:54:33;;;;;;;3.08;1.52;;;;;;;17.65;67.36;100898.44;18308305;32;20103;-66
2022/05/27 01:04:38;;;;;;;3.45;1.55;;;;;;;18.03;65.57;100895.75;18307083;32;20086;-66
2022/05/27 01:14:49;;;;;;;2.45;1.40;;;;;;;17.79;66.85;100886.69;18306734;32;20090;-66
2022/05/27 01:25:06;;;;;;;2.22;1.30;;;;;;;17.56;67.44;100890.72;18108429;32;20123;-66
2022/05/27 01:35:17;;;;;;;2.92;1.50;;;;;;;17.27;67.96;100890.50;18127621;32;20116;-66
2022/05/27 01:45:24;;;;;;;1.87;1.30;;;;;;;16.66;70.18;100888.22;18305903;32;20497;-66
2022/05/27 01:55:34;;;;;;;1.67;1.42;;;;;;;16.66;69.74;100875.03;18305536;32;20103;-66
2022/05/27 02:05:43;;;;;;;1.50;1.30;;;;;;;16.30;70.45;100870.47;18305183;32;20476;-66
2022/05/27 02:15:50;;;;;;;1.48;1.30;;;;;;;15.63;72.39;100878.59;18305140;32;20095;-66
2022/05/27 02:25:55;;;;;;;3.42;1.75;;;;;;;15.52;72.07;100881.37;18304801;32;20138;-66
2022/05/27 02:36:01;;;;;;;2.92;1.70;;;;;;;15.39;72.31;100875.41;18303330;32;20116;-66
2022/05/27 02:46:11;;;;;;;2.80;1.30;;;;;;;15.46;71.13;100886.72;18304301;32;20082;-66
2022/05/27 02:56:21;;;;;;;2.58;1.67;;;;;;;15.12;72.74;100878.41;18303625;32;20115;-66
2022/05/27 03:06:38;;;;;;;2.65;1.50;;;;;;;14.60;74.30;100881.66;18303165;32;20348;-66
2022/05/27 03:16:50;;;;;;;2.35;1.40;;;;;;;14.76;73.40;100896.41;18302340;32;20113;-66
2022/05/27 03:27:03;;;;;;;2.15;1.50;;;;;;;14.80;72.21;100898.13;18303262;32;20082;-66
2022/05/27 03:37:11;;;;;;;3.40;1.40;;;;;;;15.11;71.45;100900.34;18301641;32;20104;-66
2022/05/27 03:47:14;;;;;;;1.48;1.27;;;;;;;14.93;72.64;100916.34;18302936;32;20103;-66
2022/05/27 03:57:20;;;;;;;2.87;1.30;;;;;;;14.79;73.76;100912.13;18308793;32;20124;-66
2022/05/27 04:07:23;;;;;;;1.70;1.25;;;;;;;15.18;72.55;100898.50;18317409;32;20120;-66
2022/05/27 04:17:30;;;;;;;2.40;1.25;;;;;;;15.39;72.40;100902.59;18370522;32;20438;-66
2022/05/27 04:27:34;;;;;;;7.43;1.73;;;;;;;16.18;70.74;100904.94;18370999;32;20085;-66
2022/05/27 04:37:39;;;;;;;2.37;1.23;;;;;;;16.94;69.68;100902.63;18356144;32;20156;-66
2022/05/27 04:47:42;;;;;;;2.55;1.33;;;;;;;16.94;72.80;100898.19;18304502;32;20094;-66
2022/05/27 04:57:50;;;;;;;2.70;1.25;;;;;;;18.39;66.75;100886.94;18300564;32;76056;-70
2022/05/27 05:07:59;;;;;;;1.60;1.00;;;;;;;19.54;63.03;100873.88;18306307;32;20108;-67
2022/05/27 05:18:04;;;;;;;2.58;1.20;;;;;;;20.28;61.57;100880.28;18289063;32;20164;-67
2022/05/27 05:28:08;;;;;;;1.35;1.10;;;;;;;20.55;60.52;100887.31;18303527;32;20085;-67
2022/05/27 05:38:12;;;;;;;1.67;0.95;;;;;;;21.38;55.53;100872.69;18304846;32;20109;-67
2022/05/27 05:48:15;;;;;;;0.77;0.70;;;;;;;21.89;55.48;100878.63;18305631;32;20402;-67
2022/05/27 05:58:20;;;;;;;3.50;1.27;;;;;;;22.36;54.08;100866.00;18305533;32;20360;-67
2022/05/27 06:08:23;;;;;;;2.20;1.17;;;;;;;22.22;50.37;100861.28;18304552;32;20121;-67
2022/05/27 06:18:28;;;;;;;2.90;0.65;;;;;;;22.92;43.77;100850.19;18305143;32;20137;-66
2022/05/27 06:38:53;;;;;;;1.10;0.60;;;;;;;23.16;40.88;100852.62;18290008;32;20078;-67
2022/05/27 06:48:56;;;;;;;1.12;0.45;;;;;;;23.36;40.37;100845.50;18303823;32;20123;-68
2022/05/27 06:59:01;;;;;;;1.67;0.57;;;;;;;23.65;39.77;100841.38;18303552;32;20129;-66
2022/05/27 07:09:05;;;;;;;0.73;0.40;;;;;;;24.38;37.24;100834.16;18302740;32;20090;-67
2022/05/27 07:19:10;;;;;;;0.22;0.20;;;;;;;25.71;35.61;100814.34;18302332;32;20109;-67
2022/05/27 07:29:14;;;;;;;1.12;0.55;;;;;;;28.97;28.69;100812.69;18301684;32;20116;-67
2022/05/27 07:39:18;;;;;;;1.33;0.60;;;;;;;29.97;26.82;100801.56;18302648;32;20371;-68
2022/05/27 07:49:22;;;;;;;0.40;0.40;;;;;;;28.99;28.52;100792.81;18300884;32;20111;-67
2022/05/27 07:59:36;;;;;;;1.60;0.70;;;;;;;27.83;30.18;100791.97;18300398;32;20105;-67
2022/05/27 08:09:40;;;;;;;1.12;0.65;;;;;;;26.70;33.00;100788.66;18299875;32;20152;-67
2022/05/27 08:19:44;;;;;;;0.88;0.50;;;;;;;26.79;33.80;100781.88;18298851;32;20168;-67
2022/05/27 08:29:48;;;;;;;3.62;1.08;;;;;;;26.51;33.92;100787.19;18284478;32;20117;-66
2022/05/27 08:39:52;;;;;;;0.65;0.57;;;;;;;25.95;35.35;100781.72;18307284;32;20112;-66
2022/05/27 08:50:05;;;;;;;1.45;0.57;;;;;;;26.10;34.90;100775.44;18307306;32;20112;-67
2022/05/27 09:00:15;;;;;;;1.10;0.50;;;;;;;26.23;35.46;100761.31;18292886;32;20119;-67
2022/05/27 09:10:22;;;;;;;0.97;0.50;;;;;;;27.15;33.53;100749.16;18301579;32;20125;-65
2022/05/27 09:20:35;;;;;;;2.10;0.57;;;;;;;27.65;31.73;100739.63;18271677;32;20614;-66
2022/05/27 09:30:38;;;;;;;0.45;0.40;;;;;;;28.35;30.77;100730.25;18278630;32;20366;-67
2022/05/27 09:40:48;;;;;;;1.48;0.60;;;;;;;27.45;31.99;100714.16;18258187;32;20086;-68
2022/05/27 09:50:51;;;;;;;0.50;0.40;;;;;;;27.28;32.23;100708.13;18305357;32;20446;-67
2022/05/27 10:00:56;;;;;;;1.98;0.70;;;;;;;27.92;34.05;100688.53;18275369;32;20355;-67
2022/05/27 10:11:17;;;;;;;0.88;0.57;;;;;;;28.50;34.08;100665.66;18267142;32;20097;-67
2022/05/27 10:21:21;;;;;;;0.70;0.50;;;;;;;27.50;33.55;100672.66;18303411;32;20101;-67
2022/05/27 10:31:24;;;;;;;1.20;0.50;;;;;;;27.96;31.22;100651.63;18288855;32;20355;-67
2022/05/27 10:41:38;;;;;;;1.73;0.70;;;;;;;27.94;32.41;100637.47;18282802;32;20109;-68
2022/05/27 10:51:50;;;;;;;1.95;0.55;;;;;;;28.58;30.68;100620.31;18236401;32;20565;-66
2022/05/27 11:02:07;;;;;;;1.40;0.73;;;;;;;28.57;29.89;100602.50;18285572;32;20094;-67
2022/05/27 11:12:19;;;;;;;1.92;0.68;;;;;;;29.18;29.79;100585.31;18277014;32;20133;-67
2022/05/27 11:22:28;;;;;;;1.02;0.77;;;;;;;29.07;28.92;100577.25;18266074;32;20107;-68
2022/05/27 11:32:58;;;;;;;0.90;0.60;;;;;;;29.59;29.33;100547.22;18296484;32;20501;-67
2022/05/27 11:43:37;;;;;;;1.47;0.60;;;;;;;29.63;29.64;100540.62;18271655;32;20421;-68
2022/05/27 11:54:14;;;;;;;0.62;0.50;;;;;;;29.55;29.69;100516.19;18233380;32;20206;-69
2022/05/27 12:04:30;;;;;;;1.05;0.60;;;;;;;30.24;30.46;100498.03;18221487;32;20164;-69
2022/05/27 12:14:38;;;;;;;2.95;1.05;;;;;;;29.23;30.83;100482.00;18242432;32;20101;-68
2022/05/27 12:24:47;;;;;;;1.30;0.80;;;;;;;30.23;30.78;100470.25;18241202;32;20133;-69
2022/05/27 12:34:51;;;;;;;0.60;0.60;;;;;;;29.95;30.65;100459.09;18237128;32;20094;-67
2022/05/27 12:44:55;;;;;;;3.35;0.82;;;;;;;29.26;31.64;100444.09;18240898;32;20473;-68
2022/05/27 12:55:07;;;;;;;1.10;0.80;;;;;;;28.82;32.26;100426.00;18236339;32;20102;-67
2022/05/27 13:05:15;;;;;;;1.90;0.98;;;;;;;29.98;31.25;100414.94;18274795;32;20137;-67
2022/05/27 13:15:25;;;;;;;1.55;0.70;;;;;;;29.48;31.73;100397.53;18291306;32;20102;-69
2022/05/27 13:25:39;;;;;;;0.90;0.68;;;;;;;29.17;31.91;100379.37;18290139;32;20163;-67
2022/05/27 13:35:44;;;;;;;0.98;0.70;;;;;;;28.69;33.21;100358.13;18305262;32;20109;-68
2022/05/27 13:45:51;;;;;;;2.85;0.80;;;;;;;29.59;32.08;100342.84;18304889;32;20446;-67
2022/05/27 13:55:55;;;;;;;1.40;0.75;;;;;;;30.08;30.60;100324.41;18304663;32;20511;-67
2022/05/27 14:06:03;;;;;;;0.80;0.80;;;;;;;29.60;31.11;100323.06;18305424;32;20101;-67
2022/05/27 14:16:10;;;;;;;0.88;0.80;;;;;;;29.54;31.36;100305.56;18304370;32;20089;-67
2022/05/27 14:26:15;;;;;;;1.73;0.85;;;;;;;29.70;31.00;100278.25;18305075;32;20114;-67
2022/05/27 14:36:20;;;;;;;1.77;0.70;;;;;;;30.89;29.85;100257.25;18304606;32;20117;-67
2022/05/27 14:46:27;;;;;;;2.03;0.80;;;;;;;30.67;29.43;100251.13;18303530;32;20086;-67
2022/05/27 14:56:31;;;;;;;1.65;0.80;;;;;;;29.51;30.66;100240.47;18302926;32;20451;-68
2022/05/27 15:06:39;;;;;;;2.20;0.77;;;;;;;29.44;32.01;100230.25;18289081;32;20093;-68
2022/05/27 15:16:42;;;;;;;2.70;0.85;;;;;;;28.82;31.75;100227.25;18301618;32;20390;-68
2022/05/27 15:37:16;;;;;;;2.50;0.83;;;;;;;29.56;31.20;100197.91;18286817;32;20119;-67
2022/05/27 15:47:21;;;;;;;2.10;1.00;;;;;;;29.33;33.04;100184.56;18305937;32;20158;-67
2022/05/27 15:57:25;;;;;;;1.37;0.88;;;;;;;29.30;32.62;100168.69;18307983;32;20476;-68
2022/05/27 16:07:30;;;;;;;0.70;0.60;;;;;;;29.52;31.86;100145.37;18308594;32;20438;-67
2022/05/27 16:27:55;;;;;;;0.77;0.57;;;;;;;29.42;31.55;100116.56;18307319;32;20144;-67
2022/05/27 16:38:00;;;;;;;1.73;0.93;;;;;;;29.08;33.77;100124.84;18305639;32;20093;-67
2022/05/27 16:48:05;;;;;;;1.70;0.90;;;;;;;29.18;32.20;100114.19;18292877;32;20398;-68
2022/05/27 16:58:09;;;;;;;1.92;1.20;;;;;;;28.66;32.81;100128.31;18304920;32;20094;-67
2022/05/27 17:08:14;;;;;;;1.65;1.08;;;;;;;28.68;33.45;100129.00;18303714;32;20125;-67
2022/05/27 17:18:18;;;;;;;2.35;0.90;;;;;;;27.77;34.45;100121.97;18291759;32;20078;-67
2022/05/27 17:28:24;;;;;;;0.80;0.80;;;;;;;27.39;35.26;100123.13;18305877;32;20089;-67
2022/05/27 17:38:28;;;;;;;1.23;1.10;;;;;;;27.56;35.58;100128.06;18318732;32;20122;-71
2022/05/27 17:58:55;;;;;;;1.23;0.80;;;;;;;27.26;36.46;100145.53;18304215;32;20090;-67
2022/05/27 18:08:59;;;;;;;2.35;1.00;;;;;;;26.83;37.24;100143.38;18299987;32;20098;-68
2022/05/27 18:19:04;;;;;;;1.87;1.12;;;;;;;26.42;37.53;100157.06;18300247;32;20668;-67
2022/05/27 18:29:09;;;;;;;2.92;1.17;;;;;;;26.52;36.26;100145.69;18288384;32;20123;-67
2022/05/27 18:39:12;;;;;;;1.25;0.80;;;;;;;26.37;35.47;100148.53;18301620;32;20112;-68
2022/05/27 18:49:17;;;;;;;1.33;0.70;;;;;;;26.22;35.21;100147.78;18301806;32;20085;-68
2022/05/27 18:59:20;;;;;;;1.45;0.70;;;;;;;26.04;34.90;100147.28;18302107;32;20370;-67
2022/05/27 19:09:25;;;;;;;1.02;0.73;;;;;;;25.99;35.23;100155.63;18298860;32;20163;-67
2022/05/27 19:29:51;;;;;;;1.02;0.70;;;;;;;25.12;38.18;100180.25;18351655;32;20093;-67
2022/05/27 19:39:54;;;;;;;2.20;0.80;;;;;;;24.83;38.38;100177.72;18350193;32;20085;-67
2022/05/27 19:49:59;;;;;;;2.53;0.90;;;;;;;24.39;39.76;100185.78;18363654;32;20093;-67
2022/05/27 20:00:02;;;;;;;1.85;0.70;;;;;;;23.96;41.00;100192.00;18362863;32;20421;-67
2022/05/27 20:10:11;;;;;;;2.15;0.85;;;;;;;23.90;40.08;100215.50;18303754;32;20103;-66
2022/05/27 20:20:16;;;;;;;1.08;0.65;;;;;;;23.31;39.55;100230.50;18317487;32;20369;-67
2022/05/27 20:30:21;;;;;;;1.20;0.70;;;;;;;23.66;38.04;100248.88;18360646;32;20103;-69
2022/05/27 20:40:25;;;;;;;2.05;0.95;;;;;;;23.80;38.08;100264.03;18368927;32;20344;-68
2022/05/27 20:50:29;;;;;;;1.37;0.95;;;;;;;;;;18369119;32;20112;-67
2022/05/27 21:00:32;;;;;;;2.80;0.98;;;;;;;22.27;43.79;100300.91;18311433;32;20085;-66
2022/05/27 21:10:37;;;;;;;2.72;0.88;;;;;;;21.92;43.98;100295.66;18306259;32;20094;-67
2022/05/27 21:20:40;;;;;;;1.00;0.52;;;;;;;21.81;43.98;100328.06;18286338;32;20131;-67
2022/05/27 21:30:45;;;;;;;1.20;0.55;;;;;;;21.41;44.11;100322.91;18306028;32;20077;-68
2022/05/27 21:40:48;;;;;;;0.60;0.50;;;;;;;21.44;43.98;100327.22;18305406;32;20105;-66
2022/05/27 21:50:53;;;;;;;0.55;0.55;;;;;;;21.32;44.30;100347.25;18291616;32;20101;-67
2022/05/27 22:00:57;;;;;;;1.85;0.70;;;;;;;20.98;45.03;100348.87;18305671;32;20098;-66
2022/05/27 22:21:22;;;;;;;0.80;0.62;;;;;;;20.75;45.49;100369.31;18305315;32;20151;-67
2022/05/27 22:31:27;;;;;;;1.02;0.60;;;;;;;20.04;47.59;100367.97;18304845;32;20121;-66
2022/05/27 22:41:30;;;;;;;0.40;0.40;;;;;;;19.83;47.34;100397.94;18304507;32;20102;-66
2022/05/27 22:51:34;;;;;;;1.15;0.68;;;;;;;19.68;47.51;100375.59;18302657;32;20100;-67
2022/05/27 23:01:38;;;;;;;0.50;0.50;;;;;;;20.05;45.99;100370.56;18303404;32;20714;-67
2022/05/27 23:11:42;;;;;;;0.50;0.50;;;;;;;19.66;45.19;100365.97;18303398;32;20410;-66
2022/05/27 23:21:47;;;;;;;0.45;0.43;;;;;;;19.44;42.43;100369.47;18303073;32;20131;-66
2022/05/27 23:31:52;;;;;;;0.62;0.47;;;;;;;19.69;40.83;100345.53;18301894;32;20108;-66
2022/05/27 23:41:55;;;;;;;0.40;0.40;;;;;;;18.98;41.54;100335.06;18301849;32;20120;-66
2022/05/27 23:52:01;;;;;;;1.02;0.65;;;;;;;18.90;40.01;100340.66;18301018;32;20371;-67
